sensor_id;sensor_type;location;lat;lon;timestamp;P1;durP1;ratioP1;P2;durP2;ratioP2
8881;SDS011;4477;48.736;9.176;2022-12-18T00:00:39;104.80;;;53.97;;
8881;SDS011;4477;48.736;9.176;2022-12-18T00:03:06;93.40;;;52.47;;
8881;SDS011;4477;48.736;9.176;2022-12-18T00:05:33;91.73;;;49.67;;
8881;SDS011;4477;48.736;9.176;2022-12-18T00:08:02;90.27;;;49.47;;
8881;SDS011;4477;48.736;9.176;2022-12-18T00:10:29;97.30;;;50.73;;
8881;SDS011;4477;48.736;9.176;2022-12-18T00:12:56;105.10;;;51.50;;
8881;SDS011;4477;48.736;9.176;2022-12-18T00:15:22;143.23;;;54.53;;
8881;SDS011;4477;48.736;9.176;2022-12-18T00:17:49;101.33;;;52.33;;
8881;SDS011;4477;48.736;9.176;2022-12-18T00:20:16;93.33;;;49.60;;
8881;SDS011;4477;48.736;9.176;2022-12-18T00:22:50;94.70;;;48.03;;
8881;SDS011;4477;48.736;9.176;2022-12-18T00:25:18;95.47;;;49.83;;
8881;SDS011;4477;48.736;9.176;2022-12-18T00:27:45;99.03;;;51.30;;
8881;SDS011;4477;48.736;9.176;2022-12-18T00:30:12;107.70;;;54.37;;
8881;SDS011;4477;48.736;9.176;2022-12-18T00:32:39;109.37;;;53.50;;
8881;SDS011;4477;48.736;9.176;2022-12-18T00:35:06;93.77;;;47.80;;
8881;SDS011;4477;48.736;9.176;2022-12-18T00:37:33;96.73;;;50.70;;
8881;SDS011;4477;48.736;9.176;2022-12-18T00:40:00;93.70;;;48.93;;
8881;SDS011;4477;48.736;9.176;2022-12-18T00:42:28;98.77;;;49.40;;
8881;SDS011;4477;48.736;9.176;2022-12-18T00:45:13;95.87;;;50.43;;
8881;SDS011;4477;48.736;9.176;2022-12-18T00:47:40;93.87;;;48.60;;
8881;SDS011;4477;48.736;9.176;2022-12-18T00:50:07;91.63;;;46.60;;
8881;SDS011;4477;48.736;9.176;2022-12-18T00:52:35;91.00;;;48.23;;
8881;SDS011;4477;48.736;9.176;2022-12-18T00:55:01;91.33;;;45.10;;
8881;SDS011;4477;48.736;9.176;2022-12-18T00:57:30;78.93;;;44.07;;
8881;SDS011;4477;48.736;9.176;2022-12-18T00:59:56;93.40;;;46.97;;
8881;SDS011;4477;48.736;9.176;2022-12-18T01:02:23;88.50;;;46.83;;
8881;SDS011;4477;48.736;9.176;2022-12-18T01:04:50;92.33;;;45.97;;
8881;SDS011;4477;48.736;9.176;2022-12-18T01:07:17;96.37;;;47.30;;
8881;SDS011;4477;48.736;9.176;2022-12-18T01:09:44;88.67;;;47.43;;
8881;SDS011;4477;48.736;9.176;2022-12-18T01:12:10;91.17;;;45.60;;
8881;SDS011;4477;48.736;9.176;2022-12-18T01:14:38;100.90;;;49.23;;
8881;SDS011;4477;48.736;9.176;2022-12-18T01:17:05;97.83;;;48.83;;
8881;SDS011;4477;48.736;9.176;2022-12-18T01:19:32;95.60;;;49.60;;
8881;SDS011;4477;48.736;9.176;2022-12-18T01:21:59;86.53;;;46.37;;
8881;SDS011;4477;48.736;9.176;2022-12-18T01:24:26;84.40;;;46.13;;
8881;SDS011;4477;48.736;9.176;2022-12-18T01:26:53;80.97;;;46.77;;
8881;SDS011;4477;48.736;9.176;2022-12-18T01:29:19;89.50;;;47.47;;
8881;SDS011;4477;48.736;9.176;2022-12-18T01:31:48;88.97;;;48.90;;
8881;SDS011;4477;48.736;9.176;2022-12-18T01:34:15;82.83;;;44.83;;
8881;SDS011;4477;48.736;9.176;2022-12-18T01:36:42;82.33;;;44.47;;
8881;SDS011;4477;48.736;9.176;2022-12-18T01:39:10;87.63;;;46.83;;
8881;SDS011;4477;48.736;9.176;2022-12-18T01:41:39;99.43;;;49.60;;
8881;SDS011;4477;48.736;9.176;2022-12-18T01:47:28;86.53;;;44.07;;
8881;SDS011;4477;48.736;9.176;2022-12-18T01:49:59;87.80;;;46.83;;
8881;SDS011;4477;48.736;9.176;2022-12-18T01:52:29;83.27;;;43.87;;
8881;SDS011;4477;48.736;9.176;2022-12-18T01:54:58;76.17;;;42.60;;
8881;SDS011;4477;48.736;9.176;2022-12-18T01:57:27;82.73;;;44.37;;
8881;SDS011;4477;48.736;9.176;2022-12-18T01:59:55;86.37;;;46.37;;
8881;SDS011;4477;48.736;9.176;2022-12-18T02:02:26;76.80;;;42.90;;
8881;SDS011;4477;48.736;9.176;2022-12-18T02:04:56;80.57;;;45.37;;
8881;SDS011;4477;48.736;9.176;2022-12-18T02:07:25;83.30;;;45.30;;
8881;SDS011;4477;48.736;9.176;2022-12-18T02:09:58;84.73;;;47.70;;
8881;SDS011;4477;48.736;9.176;2022-12-18T02:12:31;83.40;;;45.70;;
8881;SDS011;4477;48.736;9.176;2022-12-18T02:15:10;73.67;;;41.93;;
8881;SDS011;4477;48.736;9.176;2022-12-18T02:17:43;73.83;;;41.40;;
8881;SDS011;4477;48.736;9.176;2022-12-18T02:20:16;74.67;;;41.90;;
8881;SDS011;4477;48.736;9.176;2022-12-18T02:22:55;80.73;;;42.57;;
8881;SDS011;4477;48.736;9.176;2022-12-18T02:25:37;77.83;;;42.90;;
8881;SDS011;4477;48.736;9.176;2022-12-18T02:28:15;78.63;;;43.07;;
8881;SDS011;4477;48.736;9.176;2022-12-18T02:30:45;76.90;;;43.07;;
8881;SDS011;4477;48.736;9.176;2022-12-18T02:33:15;74.50;;;43.03;;
8881;SDS011;4477;48.736;9.176;2022-12-18T02:35:42;72.97;;;41.47;;
8881;SDS011;4477;48.736;9.176;2022-12-18T02:38:11;72.47;;;41.20;;
8881;SDS011;4477;48.736;9.176;2022-12-18T02:40:39;73.33;;;41.57;;
8881;SDS011;4477;48.736;9.176;2022-12-18T02:43:08;72.40;;;39.90;;
8881;SDS011;4477;48.736;9.176;2022-12-18T02:45:47;76.60;;;39.90;;
8881;SDS011;4477;48.736;9.176;2022-12-18T02:48:16;72.47;;;40.50;;
8881;SDS011;4477;48.736;9.176;2022-12-18T02:50:45;71.87;;;39.90;;
8881;SDS011;4477;48.736;9.176;2022-12-18T02:53:22;67.50;;;37.90;;
8881;SDS011;4477;48.736;9.176;2022-12-18T02:55:55;64.87;;;38.47;;
8881;SDS011;4477;48.736;9.176;2022-12-18T02:58:30;66.80;;;39.57;;
8881;SDS011;4477;48.736;9.176;2022-12-18T03:01:09;73.73;;;41.23;;
8881;SDS011;4477;48.736;9.176;2022-12-18T03:03:38;73.57;;;40.97;;
8881;SDS011;4477;48.736;9.176;2022-12-18T03:06:08;76.00;;;41.47;;
8881;SDS011;4477;48.736;9.176;2022-12-18T03:08:41;73.83;;;40.33;;
8881;SDS011;4477;48.736;9.176;2022-12-18T03:11:11;71.50;;;40.37;;
8881;SDS011;4477;48.736;9.176;2022-12-18T03:13:40;75.20;;;41.07;;
8881;SDS011;4477;48.736;9.176;2022-12-18T03:16:14;75.63;;;41.63;;
8881;SDS011;4477;48.736;9.176;2022-12-18T03:18:45;69.87;;;39.37;;
8881;SDS011;4477;48.736;9.176;2022-12-18T03:21:15;67.80;;;40.63;;
8881;SDS011;4477;48.736;9.176;2022-12-18T03:23:46;69.87;;;39.67;;
8881;SDS011;4477;48.736;9.176;2022-12-18T03:26:17;71.87;;;41.60;;
8881;SDS011;4477;48.736;9.176;2022-12-18T03:28:49;66.27;;;38.33;;
8881;SDS011;4477;48.736;9.176;2022-12-18T03:31:19;66.73;;;37.83;;
8881;SDS011;4477;48.736;9.176;2022-12-18T03:33:51;72.63;;;39.77;;
8881;SDS011;4477;48.736;9.176;2022-12-18T03:36:19;71.40;;;39.67;;
8881;SDS011;4477;48.736;9.176;2022-12-18T03:38:46;70.50;;;39.63;;
8881;SDS011;4477;48.736;9.176;2022-12-18T03:41:15;72.70;;;39.37;;
8881;SDS011;4477;48.736;9.176;2022-12-18T03:43:47;67.80;;;37.93;;
8881;SDS011;4477;48.736;9.176;2022-12-18T03:46:21;72.60;;;38.57;;
8881;SDS011;4477;48.736;9.176;2022-12-18T03:48:55;66.10;;;37.33;;
8881;SDS011;4477;48.736;9.176;2022-12-18T03:51:26;65.13;;;36.90;;
8881;SDS011;4477;48.736;9.176;2022-12-18T03:54:02;66.33;;;36.83;;
8881;SDS011;4477;48.736;9.176;2022-12-18T03:56:32;66.60;;;38.50;;
8881;SDS011;4477;48.736;9.176;2022-12-18T03:59:04;68.97;;;37.80;;
8881;SDS011;4477;48.736;9.176;2022-12-18T04:01:34;63.17;;;35.07;;
8881;SDS011;4477;48.736;9.176;2022-12-18T04:04:05;62.33;;;36.10;;
8881;SDS011;4477;48.736;9.176;2022-12-18T04:06:34;64.00;;;36.90;;
8881;SDS011;4477;48.736;9.176;2022-12-18T04:09:02;69.67;;;36.43;;
8881;SDS011;4477;48.736;9.176;2022-12-18T04:11:30;68.07;;;36.50;;
8881;SDS011;4477;48.736;9.176;2022-12-18T04:13:57;69.07;;;36.80;;
8881;SDS011;4477;48.736;9.176;2022-12-18T04:16:24;67.73;;;36.40;;
8881;SDS011;4477;48.736;9.176;2022-12-18T04:18:53;71.23;;;38.17;;
8881;SDS011;4477;48.736;9.176;2022-12-18T04:21:20;69.77;;;38.00;;
8881;SDS011;4477;48.736;9.176;2022-12-18T04:23:47;73.57;;;38.37;;
8881;SDS011;4477;48.736;9.176;2022-12-18T04:26:14;70.57;;;37.47;;
8881;SDS011;4477;48.736;9.176;2022-12-18T04:28:41;63.47;;;34.77;;
8881;SDS011;4477;48.736;9.176;2022-12-18T04:31:08;65.30;;;35.27;;
8881;SDS011;4477;48.736;9.176;2022-12-18T04:33:35;75.67;;;35.23;;
8881;SDS011;4477;48.736;9.176;2022-12-18T04:36:03;70.07;;;35.47;;
8881;SDS011;4477;48.736;9.176;2022-12-18T04:38:31;67.17;;;34.93;;
8881;SDS011;4477;48.736;9.176;2022-12-18T04:40:58;67.30;;;34.30;;
8881;SDS011;4477;48.736;9.176;2022-12-18T04:43:24;64.17;;;33.97;;
8881;SDS011;4477;48.736;9.176;2022-12-18T04:45:51;67.90;;;35.67;;
8881;SDS011;4477;48.736;9.176;2022-12-18T04:48:18;66.10;;;35.87;;
8881;SDS011;4477;48.736;9.176;2022-12-18T04:50:46;65.73;;;36.10;;
8881;SDS011;4477;48.736;9.176;2022-12-18T04:53:15;51.83;;;30.23;;
8881;SDS011;4477;48.736;9.176;2022-12-18T04:55:41;67.43;;;36.17;;
8881;SDS011;4477;48.736;9.176;2022-12-18T04:58:08;65.43;;;35.30;;
8881;SDS011;4477;48.736;9.176;2022-12-18T05:00:35;64.10;;;33.03;;
8881;SDS011;4477;48.736;9.176;2022-12-18T05:03:02;64.60;;;34.07;;
8881;SDS011;4477;48.736;9.176;2022-12-18T05:05:29;69.97;;;37.07;;
8881;SDS011;4477;48.736;9.176;2022-12-18T05:07:56;66.40;;;37.33;;
8881;SDS011;4477;48.736;9.176;2022-12-18T05:10:24;70.03;;;36.77;;
8881;SDS011;4477;48.736;9.176;2022-12-18T05:12:50;64.87;;;35.27;;
8881;SDS011;4477;48.736;9.176;2022-12-18T05:15:28;68.73;;;36.50;;
8881;SDS011;4477;48.736;9.176;2022-12-18T05:17:56;62.90;;;34.13;;
8881;SDS011;4477;48.736;9.176;2022-12-18T05:20:24;66.70;;;34.93;;
8881;SDS011;4477;48.736;9.176;2022-12-18T05:22:51;63.70;;;34.90;;
8881;SDS011;4477;48.736;9.176;2022-12-18T05:25:18;69.37;;;35.13;;
8881;SDS011;4477;48.736;9.176;2022-12-18T05:27:47;59.77;;;32.80;;
8881;SDS011;4477;48.736;9.176;2022-12-18T05:30:14;64.73;;;34.40;;
8881;SDS011;4477;48.736;9.176;2022-12-18T05:32:42;60.63;;;33.80;;
8881;SDS011;4477;48.736;9.176;2022-12-18T05:35:09;65.23;;;33.97;;
8881;SDS011;4477;48.736;9.176;2022-12-18T05:37:37;67.07;;;34.90;;
8881;SDS011;4477;48.736;9.176;2022-12-18T05:40:04;64.83;;;33.50;;
8881;SDS011;4477;48.736;9.176;2022-12-18T05:42:32;59.80;;;32.90;;
8881;SDS011;4477;48.736;9.176;2022-12-18T05:45:00;60.10;;;32.47;;
8881;SDS011;4477;48.736;9.176;2022-12-18T05:47:27;62.67;;;31.73;;
8881;SDS011;4477;48.736;9.176;2022-12-18T05:49:54;68.83;;;31.23;;
8881;SDS011;4477;48.736;9.176;2022-12-18T05:52:21;63.93;;;32.33;;
8881;SDS011;4477;48.736;9.176;2022-12-18T05:54:48;64.20;;;32.83;;
8881;SDS011;4477;48.736;9.176;2022-12-18T05:57:14;61.17;;;32.33;;
8881;SDS011;4477;48.736;9.176;2022-12-18T05:59:41;58.80;;;29.97;;
8881;SDS011;4477;48.736;9.176;2022-12-18T06:02:10;56.30;;;30.80;;
8881;SDS011;4477;48.736;9.176;2022-12-18T06:04:36;58.47;;;30.60;;
8881;SDS011;4477;48.736;9.176;2022-12-18T06:07:03;58.33;;;31.07;;
8881;SDS011;4477;48.736;9.176;2022-12-18T06:09:30;57.57;;;28.77;;
8881;SDS011;4477;48.736;9.176;2022-12-18T06:11:58;57.57;;;29.70;;
8881;SDS011;4477;48.736;9.176;2022-12-18T06:14:25;61.30;;;29.60;;
8881;SDS011;4477;48.736;9.176;2022-12-18T06:16:52;56.40;;;30.40;;
8881;SDS011;4477;48.736;9.176;2022-12-18T06:19:20;59.93;;;29.63;;
8881;SDS011;4477;48.736;9.176;2022-12-18T06:21:47;54.03;;;28.93;;
8881;SDS011;4477;48.736;9.176;2022-12-18T06:24:15;54.43;;;28.73;;
8881;SDS011;4477;48.736;9.176;2022-12-18T06:26:42;60.30;;;29.60;;
8881;SDS011;4477;48.736;9.176;2022-12-18T06:29:09;58.80;;;30.65;;
8881;SDS011;4477;48.736;9.176;2022-12-18T06:31:36;60.13;;;28.23;;
8881;SDS011;4477;48.736;9.176;2022-12-18T06:34:03;61.40;;;29.57;;
8881;SDS011;4477;48.736;9.176;2022-12-18T06:36:32;57.00;;;29.67;;
8881;SDS011;4477;48.736;9.176;2022-12-18T06:38:58;59.27;;;30.13;;
8881;SDS011;4477;48.736;9.176;2022-12-18T06:41:25;59.77;;;29.50;;
8881;SDS011;4477;48.736;9.176;2022-12-18T06:43:52;58.80;;;29.87;;
8881;SDS011;4477;48.736;9.176;2022-12-18T06:46:19;55.70;;;30.17;;
8881;SDS011;4477;48.736;9.176;2022-12-18T06:48:46;53.13;;;27.27;;
8881;SDS011;4477;48.736;9.176;2022-12-18T06:51:15;55.40;;;30.03;;
8881;SDS011;4477;48.736;9.176;2022-12-18T06:53:47;55.57;;;29.23;;
8881;SDS011;4477;48.736;9.176;2022-12-18T06:56:14;60.47;;;30.90;;
8881;SDS011;4477;48.736;9.176;2022-12-18T06:58:41;53.47;;;29.47;;
8881;SDS011;4477;48.736;9.176;2022-12-18T07:01:09;61.03;;;32.27;;
8881;SDS011;4477;48.736;9.176;2022-12-18T07:03:37;59.57;;;29.90;;
8881;SDS011;4477;48.736;9.176;2022-12-18T07:06:05;51.40;;;28.83;;
8881;SDS011;4477;48.736;9.176;2022-12-18T07:08:32;59.17;;;30.00;;
8881;SDS011;4477;48.736;9.176;2022-12-18T07:11:02;55.47;;;29.60;;
8881;SDS011;4477;48.736;9.176;2022-12-18T07:13:29;53.83;;;29.07;;
8881;SDS011;4477;48.736;9.176;2022-12-18T07:16:02;53.40;;;29.07;;
8881;SDS011;4477;48.736;9.176;2022-12-18T07:18:30;56.97;;;30.00;;
8881;SDS011;4477;48.736;9.176;2022-12-18T07:20:57;54.93;;;28.93;;
8881;SDS011;4477;48.736;9.176;2022-12-18T07:23:23;54.43;;;30.77;;
8881;SDS011;4477;48.736;9.176;2022-12-18T07:25:50;56.90;;;28.40;;
8881;SDS011;4477;48.736;9.176;2022-12-18T07:28:18;58.30;;;31.53;;
8881;SDS011;4477;48.736;9.176;2022-12-18T07:30:45;58.57;;;30.37;;
8881;SDS011;4477;48.736;9.176;2022-12-18T07:33:12;62.27;;;32.47;;
8881;SDS011;4477;48.736;9.176;2022-12-18T07:35:39;58.67;;;32.53;;
8881;SDS011;4477;48.736;9.176;2022-12-18T07:38:06;51.97;;;30.70;;
8881;SDS011;4477;48.736;9.176;2022-12-18T07:40:32;56.00;;;32.23;;
8881;SDS011;4477;48.736;9.176;2022-12-18T07:42:59;56.43;;;32.63;;
8881;SDS011;4477;48.736;9.176;2022-12-18T07:45:27;58.37;;;34.27;;
8881;SDS011;4477;48.736;9.176;2022-12-18T07:47:54;60.87;;;35.53;;
8881;SDS011;4477;48.736;9.176;2022-12-18T07:50:21;58.13;;;36.27;;
8881;SDS011;4477;48.736;9.176;2022-12-18T07:52:49;63.13;;;36.00;;
8881;SDS011;4477;48.736;9.176;2022-12-18T07:55:16;60.13;;;35.47;;
8881;SDS011;4477;48.736;9.176;2022-12-18T07:57:42;57.20;;;32.63;;
8881;SDS011;4477;48.736;9.176;2022-12-18T08:00:10;58.00;;;32.33;;
8881;SDS011;4477;48.736;9.176;2022-12-18T08:02:39;55.20;;;33.00;;
8881;SDS011;4477;48.736;9.176;2022-12-18T08:05:06;54.90;;;33.23;;
8881;SDS011;4477;48.736;9.176;2022-12-18T08:07:33;55.10;;;33.13;;
8881;SDS011;4477;48.736;9.176;2022-12-18T08:10:00;56.30;;;34.50;;
8881;SDS011;4477;48.736;9.176;2022-12-18T08:12:27;57.60;;;36.73;;
8881;SDS011;4477;48.736;9.176;2022-12-18T08:14:53;58.03;;;36.50;;
8881;SDS011;4477;48.736;9.176;2022-12-18T08:17:20;57.13;;;37.00;;
8881;SDS011;4477;48.736;9.176;2022-12-18T08:19:48;57.40;;;37.27;;
8881;SDS011;4477;48.736;9.176;2022-12-18T08:22:15;57.47;;;38.27;;
8881;SDS011;4477;48.736;9.176;2022-12-18T08:24:42;56.57;;;37.67;;
8881;SDS011;4477;48.736;9.176;2022-12-18T08:27:09;54.27;;;35.50;;
8881;SDS011;4477;48.736;9.176;2022-12-18T08:29:35;56.90;;;38.77;;
8881;SDS011;4477;48.736;9.176;2022-12-18T08:32:03;61.83;;;40.47;;
8881;SDS011;4477;48.736;9.176;2022-12-18T08:34:30;60.70;;;40.40;;
8881;SDS011;4477;48.736;9.176;2022-12-18T08:36:59;59.47;;;39.07;;
8881;SDS011;4477;48.736;9.176;2022-12-18T08:39:25;57.27;;;38.70;;
8881;SDS011;4477;48.736;9.176;2022-12-18T08:41:52;57.63;;;39.43;;
8881;SDS011;4477;48.736;9.176;2022-12-18T08:44:37;62.50;;;41.90;;
8881;SDS011;4477;48.736;9.176;2022-12-18T08:47:04;70.33;;;44.47;;
8881;SDS011;4477;48.736;9.176;2022-12-18T08:49:30;61.87;;;41.03;;
8881;SDS011;4477;48.736;9.176;2022-12-18T08:51:59;66.60;;;42.70;;
8881;SDS011;4477;48.736;9.176;2022-12-18T08:54:27;59.63;;;38.57;;
8881;SDS011;4477;48.736;9.176;2022-12-18T08:56:54;73.23;;;42.60;;
8881;SDS011;4477;48.736;9.176;2022-12-18T08:59:21;73.00;;;42.97;;
8881;SDS011;4477;48.736;9.176;2022-12-18T09:01:48;72.97;;;43.77;;
8881;SDS011;4477;48.736;9.176;2022-12-18T09:04:15;74.43;;;45.13;;
8881;SDS011;4477;48.736;9.176;2022-12-18T09:06:42;75.10;;;47.73;;
8881;SDS011;4477;48.736;9.176;2022-12-18T09:09:10;63.90;;;40.70;;
8881;SDS011;4477;48.736;9.176;2022-12-18T09:11:37;71.43;;;43.37;;
8881;SDS011;4477;48.736;9.176;2022-12-18T09:14:04;68.23;;;42.30;;
8881;SDS011;4477;48.736;9.176;2022-12-18T09:16:31;69.43;;;42.20;;
8881;SDS011;4477;48.736;9.176;2022-12-18T09:18:59;59.07;;;37.60;;
8881;SDS011;4477;48.736;9.176;2022-12-18T09:21:30;54.30;;;37.30;;
8881;SDS011;4477;48.736;9.176;2022-12-18T09:23:57;58.03;;;38.50;;
8881;SDS011;4477;48.736;9.176;2022-12-18T09:26:26;57.70;;;37.17;;
8881;SDS011;4477;48.736;9.176;2022-12-18T09:28:53;55.37;;;36.47;;
8881;SDS011;4477;48.736;9.176;2022-12-18T09:31:22;56.33;;;37.87;;
8881;SDS011;4477;48.736;9.176;2022-12-18T09:33:50;55.23;;;36.77;;
8881;SDS011;4477;48.736;9.176;2022-12-18T09:36:17;49.87;;;35.27;;
8881;SDS011;4477;48.736;9.176;2022-12-18T09:38:44;54.20;;;36.90;;
8881;SDS011;4477;48.736;9.176;2022-12-18T09:41:16;54.37;;;37.27;;
8881;SDS011;4477;48.736;9.176;2022-12-18T09:43:53;65.00;;;43.50;;
8881;SDS011;4477;48.736;9.176;2022-12-18T09:46:25;64.03;;;43.80;;
8881;SDS011;4477;48.736;9.176;2022-12-18T09:48:54;57.93;;;37.87;;
8881;SDS011;4477;48.736;9.176;2022-12-18T09:51:26;52.77;;;36.20;;
8881;SDS011;4477;48.736;9.176;2022-12-18T09:53:56;48.13;;;34.77;;
8881;SDS011;4477;48.736;9.176;2022-12-18T09:56:28;48.47;;;31.87;;
8881;SDS011;4477;48.736;9.176;2022-12-18T09:58:59;49.03;;;32.57;;
8881;SDS011;4477;48.736;9.176;2022-12-18T10:01:27;42.63;;;31.17;;
8881;SDS011;4477;48.736;9.176;2022-12-18T10:03:54;45.13;;;32.43;;
8881;SDS011;4477;48.736;9.176;2022-12-18T10:06:23;49.40;;;32.67;;
8881;SDS011;4477;48.736;9.176;2022-12-18T10:08:57;42.17;;;30.27;;
8881;SDS011;4477;48.736;9.176;2022-12-18T10:11:35;56.70;;;36.80;;
8881;SDS011;4477;48.736;9.176;2022-12-18T10:14:11;66.30;;;43.17;;
8881;SDS011;4477;48.736;9.176;2022-12-18T10:16:49;69.60;;;41.80;;
8881;SDS011;4477;48.736;9.176;2022-12-18T10:19:28;44.93;;;31.03;;
8881;SDS011;4477;48.736;9.176;2022-12-18T10:22:07;43.73;;;29.80;;
8881;SDS011;4477;48.736;9.176;2022-12-18T10:24:42;45.97;;;31.60;;
8881;SDS011;4477;48.736;9.176;2022-12-18T10:27:21;46.80;;;31.70;;
8881;SDS011;4477;48.736;9.176;2022-12-18T10:29:51;45.37;;;31.97;;
8881;SDS011;4477;48.736;9.176;2022-12-18T10:32:19;48.77;;;33.70;;
8881;SDS011;4477;48.736;9.176;2022-12-18T10:34:47;52.87;;;35.23;;
8881;SDS011;4477;48.736;9.176;2022-12-18T10:37:16;46.70;;;32.17;;
8881;SDS011;4477;48.736;9.176;2022-12-18T10:39:44;50.70;;;33.93;;
8881;SDS011;4477;48.736;9.176;2022-12-18T10:42:15;44.27;;;32.50;;
8881;SDS011;4477;48.736;9.176;2022-12-18T10:44:43;48.80;;;34.00;;
8881;SDS011;4477;48.736;9.176;2022-12-18T10:47:12;42.47;;;33.00;;
8881;SDS011;4477;48.736;9.176;2022-12-18T10:49:47;39.17;;;29.60;;
8881;SDS011;4477;48.736;9.176;2022-12-18T10:52:17;39.17;;;28.87;;
8881;SDS011;4477;48.736;9.176;2022-12-18T10:54:47;39.93;;;30.23;;
8881;SDS011;4477;48.736;9.176;2022-12-18T10:57:17;40.60;;;31.07;;
8881;SDS011;4477;48.736;9.176;2022-12-18T10:59:56;42.90;;;30.67;;
8881;SDS011;4477;48.736;9.176;2022-12-18T11:02:26;41.53;;;29.80;;
8881;SDS011;4477;48.736;9.176;2022-12-18T11:04:59;40.93;;;29.67;;
8881;SDS011;4477;48.736;9.176;2022-12-18T11:07:26;36.93;;;28.23;;
8881;SDS011;4477;48.736;9.176;2022-12-18T11:10:15;43.47;;;30.30;;
8881;SDS011;4477;48.736;9.176;2022-12-18T11:12:43;39.23;;;28.20;;
8881;SDS011;4477;48.736;9.176;2022-12-18T11:15:13;37.50;;;28.27;;
8881;SDS011;4477;48.736;9.176;2022-12-18T11:17:44;34.50;;;25.90;;
8881;SDS011;4477;48.736;9.176;2022-12-18T11:20:26;37.70;;;27.27;;
8881;SDS011;4477;48.736;9.176;2022-12-18T11:22:58;37.80;;;26.57;;
8881;SDS011;4477;48.736;9.176;2022-12-18T11:25:26;35.43;;;26.10;;
8881;SDS011;4477;48.736;9.176;2022-12-18T11:27:54;41.83;;;29.20;;
8881;SDS011;4477;48.736;9.176;2022-12-18T11:30:23;38.27;;;28.77;;
8881;SDS011;4477;48.736;9.176;2022-12-18T11:32:53;41.37;;;29.37;;
8881;SDS011;4477;48.736;9.176;2022-12-18T11:35:23;41.50;;;29.40;;
8881;SDS011;4477;48.736;9.176;2022-12-18T11:37:59;46.97;;;31.33;;
8881;SDS011;4477;48.736;9.176;2022-12-18T11:40:32;43.20;;;30.23;;
8881;SDS011;4477;48.736;9.176;2022-12-18T11:43:02;37.23;;;26.40;;
8881;SDS011;4477;48.736;9.176;2022-12-18T11:45:36;38.30;;;27.43;;
8881;SDS011;4477;48.736;9.176;2022-12-18T11:48:12;40.57;;;27.80;;
8881;SDS011;4477;48.736;9.176;2022-12-18T11:50:44;36.03;;;25.63;;
8881;SDS011;4477;48.736;9.176;2022-12-18T11:53:15;39.00;;;27.10;;
8881;SDS011;4477;48.736;9.176;2022-12-18T11:55:46;34.53;;;24.90;;
8881;SDS011;4477;48.736;9.176;2022-12-18T11:58:40;42.60;;;28.43;;
8881;SDS011;4477;48.736;9.176;2022-12-18T12:01:17;42.67;;;27.63;;
8881;SDS011;4477;48.736;9.176;2022-12-18T12:03:59;40.40;;;26.83;;
8881;SDS011;4477;48.736;9.176;2022-12-18T12:06:58;38.17;;;26.77;;
8881;SDS011;4477;48.736;9.176;2022-12-18T12:09:34;43.63;;;28.07;;
8881;SDS011;4477;48.736;9.176;2022-12-18T12:12:13;42.00;;;26.90;;
8881;SDS011;4477;48.736;9.176;2022-12-18T12:14:53;31.37;;;22.63;;
8881;SDS011;4477;48.736;9.176;2022-12-18T12:17:29;33.00;;;23.33;;
8881;SDS011;4477;48.736;9.176;2022-12-18T12:20:05;31.33;;;22.87;;
8881;SDS011;4477;48.736;9.176;2022-12-18T12:22:41;29.90;;;22.33;;
8881;SDS011;4477;48.736;9.176;2022-12-18T12:25:19;28.93;;;23.00;;
8881;SDS011;4477;48.736;9.176;2022-12-18T12:27:58;30.27;;;23.30;;
8881;SDS011;4477;48.736;9.176;2022-12-18T12:30:40;32.13;;;23.87;;
8881;SDS011;4477;48.736;9.176;2022-12-18T12:33:18;32.93;;;24.37;;
8881;SDS011;4477;48.736;9.176;2022-12-18T12:35:58;34.60;;;24.80;;
8881;SDS011;4477;48.736;9.176;2022-12-18T12:38:33;38.33;;;26.33;;
8881;SDS011;4477;48.736;9.176;2022-12-18T12:41:03;34.30;;;24.83;;
8881;SDS011;4477;48.736;9.176;2022-12-18T12:43:52;35.07;;;25.13;;
8881;SDS011;4477;48.736;9.176;2022-12-18T12:46:23;35.97;;;25.90;;
8881;SDS011;4477;48.736;9.176;2022-12-18T12:48:52;40.93;;;28.77;;
8881;SDS011;4477;48.736;9.176;2022-12-18T12:51:22;39.03;;;26.73;;
8881;SDS011;4477;48.736;9.176;2022-12-18T12:53:52;36.83;;;26.13;;
8881;SDS011;4477;48.736;9.176;2022-12-18T12:56:22;35.80;;;25.93;;
8881;SDS011;4477;48.736;9.176;2022-12-18T12:58:58;37.70;;;26.10;;
8881;SDS011;4477;48.736;9.176;2022-12-18T13:01:35;46.03;;;31.97;;
8881;SDS011;4477;48.736;9.176;2022-12-18T13:04:10;41.60;;;27.70;;
8881;SDS011;4477;48.736;9.176;2022-12-18T13:06:50;45.13;;;28.33;;
8881;SDS011;4477;48.736;9.176;2022-12-18T13:09:24;46.03;;;30.63;;
8881;SDS011;4477;48.736;9.176;2022-12-18T13:11:58;36.47;;;25.60;;
8881;SDS011;4477;48.736;9.176;2022-12-18T13:14:46;32.33;;;22.47;;
8881;SDS011;4477;48.736;9.176;2022-12-18T13:17:21;33.27;;;23.80;;
8881;SDS011;4477;48.736;9.176;2022-12-18T13:20:07;36.03;;;24.93;;
8881;SDS011;4477;48.736;9.176;2022-12-18T13:22:42;32.50;;;23.37;;
8881;SDS011;4477;48.736;9.176;2022-12-18T13:27:57;31.63;;;23.33;;
8881;SDS011;4477;48.736;9.176;2022-12-18T13:30:41;31.47;;;21.87;;
8881;SDS011;4477;48.736;9.176;2022-12-18T13:36:27;31.37;;;22.00;;
8881;SDS011;4477;48.736;9.176;2022-12-18T13:45:39;41.67;;;28.17;;
8881;SDS011;4477;48.736;9.176;2022-12-18T13:48:21;34.60;;;24.30;;
8881;SDS011;4477;48.736;9.176;2022-12-18T13:50:52;35.17;;;24.37;;
8881;SDS011;4477;48.736;9.176;2022-12-18T13:53:34;41.10;;;26.63;;
8881;SDS011;4477;48.736;9.176;2022-12-18T13:56:05;37.37;;;25.10;;
8881;SDS011;4477;48.736;9.176;2022-12-18T13:58:32;37.67;;;25.37;;
8881;SDS011;4477;48.736;9.176;2022-12-18T14:01:00;39.57;;;26.27;;
8881;SDS011;4477;48.736;9.176;2022-12-18T14:03:29;39.50;;;26.20;;
8881;SDS011;4477;48.736;9.176;2022-12-18T14:06:08;41.67;;;27.67;;
8881;SDS011;4477;48.736;9.176;2022-12-18T14:08:38;39.20;;;26.23;;
8881;SDS011;4477;48.736;9.176;2022-12-18T14:11:07;44.93;;;27.57;;
8881;SDS011;4477;48.736;9.176;2022-12-18T14:13:43;40.87;;;27.43;;
8881;SDS011;4477;48.736;9.176;2022-12-18T14:16:14;48.80;;;30.40;;
8881;SDS011;4477;48.736;9.176;2022-12-18T14:18:43;47.70;;;28.90;;
8881;SDS011;4477;48.736;9.176;2022-12-18T14:21:19;49.50;;;29.93;;
8881;SDS011;4477;48.736;9.176;2022-12-18T14:23:48;68.93;;;36.97;;
8881;SDS011;4477;48.736;9.176;2022-12-18T14:26:25;55.13;;;33.00;;
8881;SDS011;4477;48.736;9.176;2022-12-18T14:28:54;63.57;;;36.10;;
8881;SDS011;4477;48.736;9.176;2022-12-18T14:31:23;54.30;;;32.93;;
8881;SDS011;4477;48.736;9.176;2022-12-18T14:33:52;71.60;;;38.43;;
8881;SDS011;4477;48.736;9.176;2022-12-18T14:36:20;68.30;;;37.97;;
8881;SDS011;4477;48.736;9.176;2022-12-18T14:38:48;65.33;;;37.40;;
8881;SDS011;4477;48.736;9.176;2022-12-18T14:41:17;62.03;;;36.20;;
8881;SDS011;4477;48.736;9.176;2022-12-18T14:43:45;56.03;;;33.60;;
8881;SDS011;4477;48.736;9.176;2022-12-18T14:46:27;51.13;;;32.30;;
8881;SDS011;4477;48.736;9.176;2022-12-18T14:48:59;51.53;;;33.00;;
8881;SDS011;4477;48.736;9.176;2022-12-18T14:51:27;57.47;;;35.10;;
8881;SDS011;4477;48.736;9.176;2022-12-18T14:53:56;48.30;;;31.67;;
8881;SDS011;4477;48.736;9.176;2022-12-18T14:56:26;52.07;;;32.80;;
8881;SDS011;4477;48.736;9.176;2022-12-18T14:58:55;54.73;;;35.53;;
8881;SDS011;4477;48.736;9.176;2022-12-18T15:01:25;49.70;;;33.43;;
8881;SDS011;4477;48.736;9.176;2022-12-18T15:03:55;56.60;;;37.90;;
8881;SDS011;4477;48.736;9.176;2022-12-18T15:06:33;56.97;;;39.33;;
8881;SDS011;4477;48.736;9.176;2022-12-18T15:09:02;57.90;;;37.93;;
8881;SDS011;4477;48.736;9.176;2022-12-18T15:11:35;60.47;;;39.67;;
8881;SDS011;4477;48.736;9.176;2022-12-18T15:14:24;63.50;;;40.97;;
8881;SDS011;4477;48.736;9.176;2022-12-18T15:16:59;67.30;;;46.90;;
8881;SDS011;4477;48.736;9.176;2022-12-18T15:19:31;65.33;;;43.03;;
8881;SDS011;4477;48.736;9.176;2022-12-18T15:22:00;72.07;;;46.40;;